Time;durP1;ratioP1;P1;durP2;ratioP2;P2;SDS_P1;SDS_P2;PMS_P1;PMS_P2;Temp;Humidity;BMP_temperature;BMP_pressure;BME280_temperature;BME280_humidity;BME280_pressure;Samples;Min_cycle;Max_cycle;Signal;HPM_P1;HPM_P2
2023/06/17 04:22:33;;;;;;;11.00;5.40;;;;;;;13.11;97.87;100136.91;5089673;28;20393;-66
2023/06/17 04:24:58;;;;;;;9.77;6.00;;;;;;;13.14;97.66;100139.19;5089490;28;20036;-66
2023/06/17 04:27:24;;;;;;;10.85;6.03;;;;;;;13.21;97.39;100144.63;5088154;28;20062;-66
2023/06/17 04:29:49;;;;;;;11.98;6.95;;;;;;;13.24;96.80;100149.59;5087844;28;20489;-66
2023/06/17 04:32:15;;;;;;;11.50;6.35;;;;;;;13.15;97.25;100140.00;5088009;28;20043;-66
2023/06/17 04:34:47;;;;;;;10.30;6.13;;;;;;;13.17;97.81;100146.84;5088046;28;20040;-66
2023/06/17 04:37:14;;;;;;;10.05;6.38;;;;;;;13.28;97.64;100143.66;5088176;28;20120;-65
2023/06/17 04:39:42;;;;;;;10.17;6.57;;;;;;;13.30;97.67;100140.78;5087702;28;20459;-65
2023/06/17 04:42:09;;;;;;;;;;;;;;;13.38;97.48;100142.50;5088310;28;20501;-66
2023/06/17 04:44:37;;;;;;;10.75;6.55;;;;;;;13.51;96.53;100147.97;5087671;28;19916;-65
2023/06/17 04:47:04;;;;;;;8.20;5.20;;;;;;;13.64;96.37;100142.69;5089100;28;20028;-66
2023/06/17 04:49:31;;;;;;;10.68;6.93;;;;;;;13.72;96.59;100141.72;5087502;28;20047;-66
2023/06/17 04:51:56;;;;;;;10.63;6.78;;;;;;;13.84;96.00;100145.50;5089093;28;20036;-66
2023/06/17 04:54:24;;;;;;;9.93;6.00;;;;;;;13.96;94.93;100143.13;5088879;28;20050;-66
2023/06/17 04:56:51;;;;;;;;;;;;;;;14.09;93.74;100156.56;5088007;28;20033;-66
2023/06/17 04:59:19;;;;;;;9.97;7.07;;;;;;;14.15;92.66;100154.94;5087297;28;19920;-66
2023/06/17 05:01:45;;;;;;;13.52;7.30;;;;;;;14.17;92.29;100158.25;5087438;28;20357;-66
2023/06/17 05:04:11;;;;;;;21.98;11.95;;;;;;;14.31;91.08;100158.09;5087483;28;20059;-66
2023/06/17 05:06:36;;;;;;;29.48;16.52;;;;;;;14.42;90.68;100154.03;5087288;28;20505;-66
2023/06/17 05:09:03;;;;;;;10.60;7.45;;;;;;;14.51;88.82;100160.06;5087109;28;20040;-66
2023/06/17 05:11:29;;;;;;;21.95;12.15;;;;;;;14.63;88.60;100161.16;5087312;28;20036;-65
2023/06/17 05:13:55;;;;;;;16.92;9.57;;;;;;;14.72;88.70;100167.97;5087328;28;20037;-66
2023/06/17 05:16:20;;;;;;;11.55;7.10;;;;;;;14.81;87.55;100164.09;5087445;28;20064;-66
2023/06/17 05:18:46;;;;;;;11.15;6.03;;;;;;;14.89;85.22;100160.38;5086909;28;20544;-66
2023/06/17 05:21:12;;;;;;;8.40;5.85;;;;;;;14.95;84.62;100164.13;5088133;28;20132;-66
2023/06/17 05:23:37;;;;;;;8.75;5.45;;;;;;;14.92;83.41;100158.09;5087082;28;20039;-66
2023/06/17 05:26:04;;;;;;;8.63;6.18;;;;;;;15.11;83.61;100166.41;5087094;28;20036;-66
2023/06/17 05:28:31;;;;;;;9.18;5.82;;;;;;;15.23;82.70;100161.25;5069862;28;20085;-66
2023/06/17 05:30:57;;;;;;;12.13;6.90;;;;;;;15.32;82.88;100158.19;5087312;28;20037;-66
2023/06/17 05:33:24;;;;;;;10.40;6.32;;;;;;;15.42;82.91;100171.16;5076555;28;21148;-66
2023/06/17 05:35:49;;;;;;;15.18;6.47;;;;;;;15.47;80.92;100163.34;5074715;28;20093;-66
2023/06/17 05:38:15;;;;;;;11.65;6.35;;;;;;;15.59;79.88;100168.91;5074441;28;20048;-67
2023/06/17 05:40:40;;;;;;;12.40;7.68;;;;;;;15.65;80.58;100173.47;5073292;28;20036;-66
2023/06/17 05:43:06;;;;;;;15.00;9.13;;;;;;;15.74;81.02;100167.66;5073270;28;20520;-66
2023/06/17 05:45:31;;;;;;;12.73;7.65;;;;;;;15.82;80.08;100173.84;5073001;28;20617;-66
2023/06/17 05:47:57;;;;;;;15.90;9.10;;;;;;;15.89;80.10;100170.13;5073239;28;20443;-66
2023/06/17 05:50:23;;;;;;;11.00;6.85;;;;;;;16.06;79.71;100164.31;5074166;28;20051;-65
2023/06/17 05:52:49;;;;;;;12.45;6.95;;;;;;;16.14;80.62;100172.13;5073004;28;20404;-65
2023/06/17 05:55:14;;;;;;;9.13;5.75;;;;;;;16.27;78.50;100178.28;5074213;28;20044;-66
2023/06/17 05:57:40;;;;;;;12.13;7.70;;;;;;;16.47;78.57;100172.00;5072759;28;20046;-65
2023/06/17 06:00:08;;;;;;;10.40;6.88;;;;;;;16.49;77.02;100157.31;5072688;28;20028;-65
2023/06/17 06:02:39;;;;;;;11.63;7.05;;;;;;;16.67;76.85;100174.59;5073063;28;20092;-66
2023/06/17 06:05:05;;;;;;;11.20;7.82;;;;;;;16.76;75.70;100170.69;5073003;28;20477;-54
2023/06/17 06:07:31;;;;;;;10.25;6.57;;;;;;;16.88;75.99;100181.56;5070289;28;20036;-53
2023/06/17 06:09:56;;;;;;;12.13;7.13;;;;;;;16.90;75.90;100183.00;5072175;28;20036;-55
2023/06/17 06:12:22;;;;;;;12.20;7.80;;;;;;;16.90;76.93;100180.31;5073920;28;20477;-52
2023/06/17 06:14:47;;;;;;;9.90;6.60;;;;;;;16.95;78.31;100180.50;5072543;28;20036;-52
2023/06/17 06:17:13;;;;;;;11.27;6.95;;;;;;;17.03;76.72;100184.78;5072515;28;20078;-54
2023/06/17 06:19:38;;;;;;;13.55;8.15;;;;;;;17.06;77.58;100178.97;5072284;28;20051;-55
2023/06/17 06:22:04;;;;;;;11.25;7.43;;;;;;;17.21;75.67;100184.03;5072429;28;20247;-52
2023/06/17 06:24:29;;;;;;;12.77;7.68;;;;;;;17.29;74.89;100191.88;5072417;28;20496;-53
2023/06/17 06:26:55;;;;;;;12.23;6.95;;;;;;;17.36;75.73;100193.47;5072363;28;20051;-56
2023/06/17 06:29:20;;;;;;;11.50;7.15;;;;;;;17.42;76.56;100188.25;5072097;28;20024;-53
2023/06/17 06:31:46;;;;;;;11.80;7.32;;;;;;;17.56;76.88;100193.28;5072161;28;20071;-52
2023/06/17 06:34:14;;;;;;;12.75;7.25;;;;;;;17.61;77.20;100181.88;5072254;28;20032;-53
2023/06/17 06:36:39;;;;;;;13.52;8.20;;;;;;;17.67;76.76;100193.59;5073436;28;20111;-53
2023/06/17 06:39:05;;;;;;;12.30;7.50;;;;;;;17.74;76.76;100195.25;5073095;28;20496;-57
2023/06/17 06:41:30;;;;;;;12.32;6.15;;;;;;;17.94;73.34;100199.63;5073618;28;20403;-53
2023/06/17 06:44:03;;;;;;;9.68;6.32;;;;;;;18.01;73.54;100189.59;5070937;28;20037;-58
2023/06/17 06:46:32;;;;;;;9.40;6.38;;;;;;;18.08;72.66;100193.88;5073348;28;20120;-56
2023/06/17 06:48:58;;;;;;;12.70;7.55;;;;;;;18.33;71.63;100198.38;5071602;28;20143;-56
2023/06/17 06:51:25;;;;;;;12.98;7.13;;;;;;;18.32;72.15;100194.00;5071861;28;20037;-57
2023/06/17 06:53:51;;;;;;;12.60;7.13;;;;;;;18.49;68.97;100197.75;5071848;28;20032;-53
2023/06/17 06:56:17;;;;;;;14.00;7.03;;;;;;;18.58;68.86;100191.03;5071690;28;20405;-52
2023/06/17 06:58:43;;;;;;;14.25;7.68;;;;;;;18.69;68.29;100198.34;5071330;28;20037;-53
2023/06/17 07:01:08;;;;;;;13.50;7.40;;;;;;;18.75;67.05;100210.13;5071686;28;20040;-56
2023/06/17 07:03:34;;;;;;;10.65;6.75;;;;;;;18.86;68.15;100203.13;5071629;28;20448;-52
2023/06/17 07:06:00;;;;;;;14.32;7.88;;;;;;;19.14;64.77;100211.44;5071262;28;20132;-54
2023/06/17 07:08:25;;;;;;;12.13;7.47;;;;;;;19.22;64.23;100208.41;5072441;28;20512;-56
2023/06/17 07:10:51;;;;;;;12.15;7.47;;;;;;;19.32;64.59;100209.75;5072752;28;20032;-52
2023/06/17 07:13:17;;;;;;;11.30;6.93;;;;;;;19.42;64.81;100210.81;5071529;28;20064;-54
2023/06/17 07:15:45;;;;;;;13.00;7.60;;;;;;;19.50;63.28;100210.50;5071378;28;20067;-56
2023/06/17 07:18:10;;;;;;;11.98;7.55;;;;;;;19.57;64.42;100207.69;5072667;28;20535;-53
2023/06/17 07:20:37;;;;;;;11.00;7.00;;;;;;;19.63;65.26;100211.38;5072185;28;20036;-56
2023/06/17 07:23:03;;;;;;;13.82;7.82;;;;;;;19.82;65.12;100203.94;5071441;28;20111;-52
2023/06/17 07:25:29;;;;;;;11.57;6.90;;;;;;;19.90;65.58;100200.91;5071260;28;20040;-52
2023/06/17 07:28:01;;;;;;;11.20;7.40;;;;;;;19.85;64.06;100200.78;5071175;28;20051;-53
2023/06/17 07:30:27;;;;;;;11.25;7.18;;;;;;;19.98;63.35;100200.56;5072263;28;20124;-53
2023/06/17 07:32:52;;;;;;;12.02;7.43;;;;;;;20.21;64.19;100195.13;5072442;28;20127;-56
2023/06/17 07:35:19;;;;;;;10.13;6.68;;;;;;;20.27;62.58;100196.84;5072177;28;20041;-52
2023/06/17 07:37:44;;;;;;;11.38;6.97;;;;;;;20.42;61.05;100198.25;5071150;28;20106;-55
2023/06/17 07:40:11;;;;;;;13.23;7.38;;;;;;;20.55;60.98;100193.44;5070778;28;20513;-57
2023/06/17 07:42:41;;;;;;;10.25;6.70;;;;;;;20.67;61.50;100197.97;5072306;28;20036;-55
2023/06/17 07:45:07;;;;;;;10.73;6.82;;;;;;;20.85;60.32;100193.19;5072155;28;20454;-57
2023/06/17 07:47:32;;;;;;;9.40;7.13;;;;;;;21.00;59.26;100191.84;5072227;28;20075;-54
2023/06/17 07:49:58;;;;;;;14.55;6.88;;;;;;;21.17;59.74;100198.09;5071723;28;20040;-53
2023/06/17 07:52:23;;;;;;;11.10;7.22;;;;;;;21.27;58.28;100202.88;5072102;28;20044;-53
2023/06/17 07:54:49;;;;;;;11.00;7.03;;;;;;;21.35;56.15;100195.19;5072083;28;20082;-55
2023/06/17 07:57:14;;;;;;;9.75;7.38;;;;;;;21.50;56.40;100201.94;5071764;28;20441;-52
2023/06/17 07:59:42;;;;;;;11.73;6.97;;;;;;;21.70;54.94;100202.25;5071725;28;20495;-56
2023/06/17 08:02:08;;;;;;;9.20;5.80;;;;;;;21.86;55.06;100197.91;5065495;28;20037;-56
2023/06/17 08:04:33;;;;;;;9.77;6.40;;;;;;;22.01;53.26;100198.13;5058226;28;20400;-57
2023/06/17 08:06:59;;;;;;;9.05;6.63;;;;;;;22.12;52.81;100191.81;5055557;28;20041;-56
2023/06/17 08:09:24;;;;;;;11.43;6.60;;;;;;;22.24;52.46;100189.00;5054480;28;20543;-55
2023/06/17 08:11:49;;;;;;;9.40;6.30;;;;;;;22.51;52.65;100185.53;5057109;28;20044;-54
2023/06/17 08:14:15;;;;;;;9.07;6.72;;;;;;;22.53;52.37;100186.06;5051792;28;20037;-52
2023/06/17 08:16:42;;;;;;;10.38;6.22;;;;;;;22.70;49.37;100186.81;5051753;28;20073;-53
2023/06/17 08:19:07;;;;;;;10.48;7.30;;;;;;;22.79;49.12;100185.28;5050941;28;20072;-55
2023/06/17 08:21:34;;;;;;;8.15;5.88;;;;;;;22.90;47.31;100183.53;5050737;28;20083;-54
2023/06/17 08:24:15;;;;;;;10.10;6.13;;;;;;;23.27;48.15;100189.03;5051765;28;20029;-53
2023/06/17 08:26:43;;;;;;;8.73;5.43;;;;;;;23.32;47.69;100180.13;5051309;28;20500;-52
2023/06/17 08:29:10;;;;;;;10.98;6.10;;;;;;;23.46;46.74;100171.25;5059296;28;20099;-63
2023/06/17 08:31:36;;;;;;;9.02;5.93;;;;;;;23.56;45.32;100167.81;5060631;28;20389;-60
2023/06/17 08:34:01;;;;;;;9.20;5.55;;;;;;;23.54;45.09;100176.25;5061928;28;20040;-60
2023/06/17 08:36:27;;;;;;;9.23;5.97;;;;;;;23.55;45.67;100179.78;5060034;28;20044;-61
2023/06/17 08:38:52;;;;;;;7.15;5.93;;;;;;;23.74;46.33;100180.22;5061326;28;20033;-61
2023/06/17 08:41:17;;;;;;;9.75;6.00;;;;;;;23.91;44.40;100169.97;5062026;28;20064;-62
2023/06/17 08:43:46;;;;;;;12.73;5.80;;;;;;;24.01;44.71;100171.94;5060967;28;20087;-60
2023/06/17 08:46:14;;;;;;;8.60;5.45;;;;;;;24.01;45.06;100171.94;5059839;28;20047;-61
2023/06/17 08:48:41;;;;;;;10.85;6.43;;;;;;;23.88;43.99;100165.06;5061384;28;20122;-61
2023/06/17 08:51:07;;;;;;;;;;;;;;;24.30;44.90;100164.19;5060278;28;20405;-60
2023/06/17 08:53:32;;;;;;;10.63;6.72;;;;;;;24.20;45.46;100159.53;5059759;28;19920;-61
2023/06/17 08:55:58;;;;;;;10.73;6.22;;;;;;;24.43;43.99;100168.34;5061634;28;20516;-60
2023/06/17 08:58:23;;;;;;;9.43;6.80;;;;;;;24.78;45.05;100163.03;5060720;28;20041;-61
2023/06/17 09:00:50;;;;;;;11.15;5.88;;;;;;;24.94;43.42;100155.69;5061381;28;20032;-61
2023/06/17 09:03:20;;;;;;;14.30;6.68;;;;;;;25.23;43.26;100160.66;5071397;28;20048;-61
2023/06/17 09:05:46;;;;;;;10.75;6.45;;;;;;;25.43;43.60;100168.84;5071324;28;20040;-61
2023/06/17 09:08:11;;;;;;;11.40;6.47;;;;;;;25.43;42.02;100160.69;5073101;28;20513;-61
2023/06/17 09:10:44;;;;;;;10.18;6.15;;;;;;;25.50;40.46;100155.75;5073531;28;20050;-59
2023/06/17 09:13:10;;;;;;;9.80;6.07;;;;;;;25.74;40.43;100153.28;5075009;28;20044;-60
2023/06/17 09:15:40;;;;;;;7.82;5.63;;;;;;;26.16;42.19;100152.91;5074941;28;20126;-60
2023/06/17 09:18:07;;;;;;;8.48;5.13;;;;;;;26.13;40.05;100153.44;5075016;28;20047;-61
2023/06/17 09:20:32;;;;;;;9.00;6.70;;;;;;;26.07;38.49;100154.56;5074624;28;20378;-63
2023/06/17 09:22:58;;;;;;;11.15;6.13;;;;;;;26.31;39.79;100151.22;5075081;28;20036;-62
2023/06/17 09:25:24;;;;;;;7.68;4.90;;;;;;;26.70;36.58;100152.13;5074859;28;20044;-61
2023/06/17 09:27:53;;;;;;;8.13;4.85;;;;;;;26.84;37.30;100151.50;5074837;28;20040;-61
2023/06/17 09:30:25;;;;;;;8.68;5.18;;;;;;;26.85;37.06;100147.66;5073206;28;20036;-63
2023/06/17 09:32:52;;;;;;;9.15;5.53;;;;;;;26.89;37.62;100144.09;5074730;28;20048;-63
2023/06/17 09:35:18;;;;;;;8.50;5.88;;;;;;;27.14;35.67;100143.13;5074686;28;20103;-61
2023/06/17 09:37:47;;;;;;;9.85;5.82;;;;;;;26.70;33.75;100138.47;5074480;28;20043;-61
2023/06/17 09:40:13;;;;;;;11.02;5.57;;;;;;;27.37;34.56;100127.06;5074286;28;20028;-61
2023/06/17 09:42:39;;;;;;;8.57;5.55;;;;;;;27.36;34.25;100123.50;5074519;28;20046;-61
2023/06/17 09:45:11;;;;;;;8.32;5.65;;;;;;;27.36;35.51;100136.38;5074382;28;20450;-63
2023/06/17 09:47:39;;;;;;;11.60;5.75;;;;;;;27.77;36.54;100131.34;5074296;28;20059;-61
2023/06/17 09:50:08;;;;;;;8.65;5.03;;;;;;;28.12;33.77;100128.22;5074091;28;20040;-61
2023/06/17 09:52:36;;;;;;;8.38;5.63;;;;;;;28.42;33.39;100120.72;5074294;28;20085;-62
2023/06/17 09:55:06;;;;;;;7.18;5.30;;;;;;;28.28;33.62;100122.53;5074322;28;20036;-61
2023/06/17 09:57:32;;;;;;;7.97;5.40;;;;;;;28.44;32.99;100118.53;5074265;28;20040;-61
2023/06/17 10:00:10;;;;;;;9.02;5.65;;;;;;;28.67;32.77;100114.06;5073856;28;20058;-61
2023/06/17 10:02:37;;;;;;;8.18;5.35;;;;;;;28.52;32.87;100103.34;5074300;28;20047;-61
2023/06/17 10:05:03;;;;;;;6.70;5.13;;;;;;;28.73;32.35;100107.41;5074085;28;20078;-61
2023/06/17 10:07:29;;;;;;;7.38;5.20;;;;;;;28.96;31.38;100107.66;5073991;28;20040;-61
2023/06/17 10:09:56;;;;;;;7.28;4.57;;;;;;;29.25;30.11;100100.03;5073742;28;20554;-62
2023/06/17 10:12:23;;;;;;;6.65;4.80;;;;;;;29.25;31.45;100104.69;5074000;28;20048;-62
2023/06/17 10:14:49;;;;;;;7.78;5.28;;;;;;;29.24;30.83;100103.88;5073976;28;20416;-61
2023/06/17 10:17:17;;;;;;;7.53;4.88;;;;;;;29.64;30.28;100102.34;5073784;28;20065;-62
2023/06/17 10:19:46;;;;;;;6.88;5.00;;;;;;;29.61;29.88;100105.72;5073329;28;20123;-62
2023/06/17 10:22:15;;;;;;;9.45;4.88;;;;;;;30.03;29.32;100094.75;5073616;28;20060;-62
2023/06/17 10:24:41;;;;;;;5.03;4.18;;;;;;;30.63;27.68;100100.03;5074060;28;20075;-62
2023/06/17 10:27:07;;;;;;;6.20;4.47;;;;;;;30.16;28.14;100097.50;5073625;28;20048;-62
2023/06/17 10:29:33;;;;;;;6.22;5.00;;;;;;;30.47;27.92;100094.91;5073344;28;20286;-63
2023/06/17 10:32:16;;;;;;;7.63;5.17;;;;;;;30.92;27.54;100095.00;5073824;28;20045;-61
2023/06/17 10:35:05;;;;;;;7.45;4.88;;;;;;;30.99;26.46;100097.28;5073568;28;20051;-62
2023/06/17 10:37:31;;;;;;;7.28;5.30;;;;;;;31.19;26.67;100093.22;5073422;28;20043;-62
2023/06/17 10:40:30;;;;;;;6.33;4.80;;;;;;;31.66;25.78;100096.41;5073289;28;20540;-61
2023/06/17 10:43:17;;;;;;;5.78;4.10;;;;;;;31.50;27.26;100080.31;5065601;28;20293;-62
2023/06/17 10:45:55;;;;;;;7.93;4.10;;;;;;;31.91;24.81;100092.16;5073326;28;20032;-62
2023/06/17 10:48:21;;;;;;;5.82;3.90;;;;;;;31.72;24.87;100093.19;5073082;28;20036;-62
2023/06/17 10:50:57;;;;;;;5.13;3.70;;;;;;;31.94;24.22;100084.06;5073112;28;20114;-62
2023/06/17 10:53:28;;;;;;;6.45;4.00;;;;;;;32.28;23.76;100082.53;5073114;28;20040;-62
2023/06/17 10:55:56;;;;;;;7.30;3.42;;;;;;;32.22;22.73;100073.59;5073028;28;20033;-62
2023/06/17 10:58:22;;;;;;;6.00;3.42;;;;;;;32.39;22.58;100075.59;5072822;28;20020;-62
2023/06/17 11:01:06;;;;;;;6.57;3.90;;;;;;;32.75;23.04;100074.47;5072870;28;20124;-61
2023/06/17 11:03:32;;;;;;;6.50;3.85;;;;;;;33.01;23.21;100072.50;5073012;28;20028;-62
2023/06/17 11:05:59;;;;;;;5.70;3.13;;;;;;;33.17;22.30;100076.34;5072781;28;20085;-61
2023/06/17 11:08:25;;;;;;;;;;;;;;;33.42;20.75;100076.66;5073099;28;20212;-61
2023/06/17 11:10:50;;;;;;;4.77;3.00;;;;;;;33.33;19.88;100084.94;5072754;28;19943;-61
2023/06/17 11:13:21;;;;;;;3.43;2.60;;;;;;;33.44;19.19;100079.88;5072701;28;20508;-62
2023/06/17 11:15:46;;;;;;;4.28;3.03;;;;;;;33.62;20.42;100084.19;5072585;28;20082;-62
2023/06/17 11:18:11;;;;;;;4.43;3.27;;;;;;;33.82;20.56;100082.66;5072626;28;20102;-62
2023/06/17 11:20:37;;;;;;;6.50;3.47;;;;;;;33.78;20.93;100084.47;5072292;28;20402;-60
2023/06/17 11:23:03;;;;;;;5.43;3.57;;;;;;;33.92;21.14;100084.28;5072647;28;20501;-61
2023/06/17 11:25:29;;;;;;;5.05;3.75;;;;;;;34.28;21.10;100078.97;5072560;28;20123;-61
2023/06/17 11:27:55;;;;;;;4.50;3.47;;;;;;;34.55;20.22;100068.56;5072528;28;20036;-62
2023/06/17 11:30:24;;;;;;;5.63;3.60;;;;;;;34.27;20.49;100069.06;5071647;28;20063;-62
2023/06/17 11:32:50;;;;;;;5.45;4.07;;;;;;;34.27;20.81;100063.56;5072205;28;20032;-62
2023/06/17 11:35:16;;;;;;;5.40;3.53;;;;;;;33.95;21.36;100062.28;5072296;28;20031;-62
2023/06/17 11:37:42;;;;;;;5.82;3.60;;;;;;;33.98;21.24;100058.06;5072550;28;20285;-62
2023/06/17 11:40:11;;;;;;;4.53;3.50;;;;;;;33.86;21.02;100064.28;5072020;28;20111;-62
2023/06/17 11:42:37;;;;;;;9.40;4.10;;;;;;;33.79;19.90;100058.47;5072224;28;20064;-62
2023/06/17 11:45:04;;;;;;;4.78;3.58;;;;;;;34.05;20.20;100052.03;5072368;28;20064;-62
2023/06/17 11:47:34;;;;;;;6.05;3.78;;;;;;;33.96;20.48;100049.28;5072045;28;20546;-61
2023/06/17 11:50:00;;;;;;;7.45;4.45;;;;;;;33.85;21.11;100050.81;5069754;28;20044;-62
2023/06/17 11:52:26;;;;;;;6.13;4.33;;;;;;;34.02;21.16;100047.94;5072268;28;20041;-62
2023/06/17 11:54:54;;;;;;;5.37;3.57;;;;;;;34.39;20.88;100034.38;5072062;28;20037;-62
2023/06/17 11:57:25;;;;;;;5.32;4.25;;;;;;;34.16;22.36;100034.69;5071848;28;20307;-62
2023/06/17 11:59:51;;;;;;;5.63;4.25;;;;;;;34.49;21.63;100034.78;5071673;28;20044;-62
2023/06/17 12:02:17;;;;;;;6.88;3.95;;;;;;;34.15;22.07;100038.59;5072032;28;20025;-62
2023/06/17 12:04:44;;;;;;;6.72;4.55;;;;;;;34.82;21.78;100033.97;5071115;28;20078;-62
2023/06/17 12:07:10;;;;;;;5.93;4.53;;;;;;;35.27;20.03;100042.31;5071730;28;20032;-63
2023/06/17 12:09:36;;;;;;;6.27;4.50;;;;;;;35.03;21.18;100037.56;5071701;28;20040;-62
2023/06/17 12:12:01;;;;;;;6.05;4.70;;;;;;;34.27;21.04;100035.91;5071844;28;20456;-63
2023/06/17 12:14:27;;;;;;;5.97;4.43;;;;;;;33.58;21.94;100038.25;5071878;28;20044;-63
2023/06/17 12:16:53;;;;;;;6.23;4.30;;;;;;;33.53;21.64;100036.50;5071800;28;20075;-63
2023/06/17 12:19:23;;;;;;;6.10;4.13;;;;;;;33.71;22.39;100024.25;5071666;28;20044;-61
2023/06/17 12:21:50;;;;;;;11.27;7.20;;;;;;;34.23;21.65;100032.22;5071774;28;20474;-62
2023/06/17 12:24:16;;;;;;;8.23;4.32;;;;;;;34.54;21.70;100031.00;5071837;28;20036;-63
2023/06/17 12:26:42;;;;;;;;;;;;;;;34.83;22.27;100023.75;5072087;28;20036;-62
2023/06/17 12:29:09;;;;;;;6.57;4.60;;;;;;;35.03;21.14;100025.69;5071328;28;20395;-64
2023/06/17 12:31:35;;;;;;;10.02;6.18;;;;;;;35.59;22.17;100026.00;5071474;28;20033;-63
2023/06/17 12:34:01;;;;;;;7.90;4.60;;;;;;;35.56;21.24;100015.63;5071706;28;20137;-63
2023/06/17 12:36:27;;;;;;;9.23;4.88;;;;;;;35.94;20.56;100017.25;5071422;28;20175;-63
2023/06/17 12:38:53;;;;;;;5.93;4.27;;;;;;;35.55;21.43;100022.31;5071438;28;20207;-63
2023/06/17 12:41:18;;;;;;;6.37;5.03;;;;;;;36.29;18.96;100014.72;5071254;28;20029;-63
2023/06/17 12:43:44;;;;;;;6.53;4.80;;;;;;;35.00;21.20;100013.31;5074383;28;20044;-63
2023/06/17 12:46:10;;;;;;;11.18;4.55;;;;;;;35.02;20.45;100007.47;5075278;28;20037;-63
2023/06/17 12:48:36;;;;;;;6.15;4.55;;;;;;;35.39;20.32;99997.22;5075319;28;20040;-62
2023/06/17 12:51:03;;;;;;;5.80;4.07;;;;;;;36.02;20.81;99994.13;5075372;28;20428;-62
2023/06/17 12:53:29;;;;;;;6.93;4.63;;;;;;;35.92;20.95;100005.69;5075272;28;20278;-62
2023/06/17 12:55:55;;;;;;;6.38;4.40;;;;;;;36.07;20.28;100003.00;5075366;28;20032;-63
2023/06/17 12:58:24;;;;;;;5.32;3.95;;;;;;;36.20;19.68;99991.88;5074853;28;20091;-62
2023/06/17 13:00:51;;;;;;;5.45;4.38;;;;;;;36.35;20.41;99991.13;5075128;28;20067;-61
2023/06/17 13:03:17;;;;;;;6.35;4.70;;;;;;;36.44;19.34;99985.47;5075101;28;20123;-61
2023/06/17 13:05:43;;;;;;;6.25;4.65;;;;;;;36.17;20.60;99981.50;5075213;28;20036;-62
2023/06/17 13:08:09;;;;;;;5.43;4.45;;;;;;;36.00;20.46;99977.06;5075121;28;20115;-62
2023/06/17 13:10:35;;;;;;;5.50;4.45;;;;;;;35.49;20.75;99974.66;5074470;28;20129;-62
2023/06/17 13:13:00;;;;;;;7.43;5.30;;;;;;;35.10;21.20;99980.84;5074799;28;20043;-60
2023/06/17 13:15:29;;;;;;;9.33;6.37;;;;;;;33.92;22.31;99979.31;5074830;28;20032;-59
2023/06/17 13:17:54;;;;;;;6.68;4.45;;;;;;;33.29;21.22;99967.25;5074778;28;20047;-62
2023/06/17 13:20:20;;;;;;;5.67;4.00;;;;;;;32.89;22.18;99973.88;5074416;28;20036;-61
2023/06/17 13:22:46;;;;;;;25.60;16.60;;;;;;;32.65;23.17;99965.31;5075062;28;20035;-62
2023/06/17 13:25:11;;;;;;;6.00;4.53;;;;;;;32.23;23.46;99964.22;5074571;28;20048;-62
2023/06/17 13:27:37;;;;;;;6.07;4.67;;;;;;;31.96;22.81;99955.13;5074508;28;20059;-63
2023/06/17 13:30:03;;;;;;;7.27;5.70;;;;;;;31.86;24.28;99960.94;5074156;28;20051;-61
2023/06/17 13:32:28;;;;;;;10.77;5.55;;;;;;;31.69;23.79;99958.94;5074518;28;20040;-63
2023/06/17 13:34:54;;;;;;;8.13;5.63;;;;;;;31.80;25.02;99960.28;5074615;28;20032;-63
2023/06/17 13:37:20;;;;;;;8.77;4.87;;;;;;;31.30;23.80;99954.31;5074386;28;20028;-63
2023/06/17 13:39:45;;;;;;;7.23;5.57;;;;;;;31.09;23.59;99954.00;5074149;28;20142;-62
2023/06/17 13:42:11;;;;;;;5.93;4.65;;;;;;;30.84;23.56;99954.69;5074245;28;20171;-63
2023/06/17 13:44:37;;;;;;;9.37;6.10;;;;;;;30.90;24.74;99957.00;5074432;28;20028;-60
2023/06/17 13:47:04;;;;;;;6.57;4.85;;;;;;;30.91;24.97;99957.78;5074077;28;20036;-62
2023/06/17 13:49:30;;;;;;;6.80;4.75;;;;;;;30.95;24.63;99951.38;5073959;28;20028;-62
2023/06/17 13:51:55;;;;;;;7.33;5.03;;;;;;;30.46;24.91;99950.41;5074276;28;20482;-61
2023/06/17 13:54:21;;;;;;;6.60;5.03;;;;;;;30.18;24.72;99949.69;5073884;28;20131;-62
2023/06/17 13:56:48;;;;;;;6.82;5.10;;;;;;;30.51;25.44;99952.19;5074191;28;20040;-63
2023/06/17 13:59:14;;;;;;;6.95;4.88;;;;;;;30.48;24.90;99953.66;5073911;28;20435;-62
2023/06/17 14:01:40;;;;;;;9.38;4.93;;;;;;;30.56;26.09;99956.75;5074129;28;20125;-62
2023/06/17 14:04:05;;;;;;;20.48;8.15;;;;;;;30.62;29.40;99955.50;5074274;28;20476;-62
2023/06/17 14:06:31;;;;;;;8.18;5.07;;;;;;;30.63;26.07;99951.63;5074017;28;20127;-63
2023/06/17 14:08:57;;;;;;;5.70;4.43;;;;;;;30.72;25.94;99952.53;5073295;28;20043;-63
2023/06/17 14:11:23;;;;;;;6.07;4.93;;;;;;;30.86;27.22;99945.03;5073506;28;20072;-62
2023/06/17 14:13:49;;;;;;;6.57;4.75;;;;;;;31.01;25.78;99949.28;5073851;28;20067;-61
2023/06/17 14:16:14;;;;;;;7.57;4.75;;;;;;;30.82;25.45;99937.72;5073796;28;20465;-61
2023/06/17 14:18:40;;;;;;;7.80;4.78;;;;;;;31.02;25.72;99948.16;5073292;28;20086;-62
2023/06/17 14:21:06;;;;;;;6.97;4.60;;;;;;;30.98;24.74;99941.69;5073504;28;20040;-61
2023/06/17 14:23:32;;;;;;;6.72;5.28;;;;;;;31.02;24.90;99940.72;5073495;28;20025;-62
2023/06/17 14:25:57;;;;;;;8.73;5.28;;;;;;;31.06;24.47;99941.72;5073811;28;20477;-62
2023/06/17 14:28:22;;;;;;;6.47;4.93;;;;;;;30.87;23.77;99938.38;5073489;28;20063;-62
2023/06/17 14:30:48;;;;;;;6.82;4.88;;;;;;;30.72;24.41;99933.31;5073462;28;20068;-61
2023/06/17 14:33:14;;;;;;;10.77;4.93;;;;;;;30.74;24.97;99937.34;5073469;28;20046;-62
2023/06/17 14:35:40;;;;;;;7.88;5.40;;;;;;;30.59;25.18;99932.22;5073648;28;20123;-61
2023/06/17 14:38:08;;;;;;;6.70;5.60;;;;;;;30.70;26.27;99925.34;5073559;28;20045;-61
2023/06/17 14:40:34;;;;;;;6.30;4.90;;;;;;;30.48;26.94;99931.66;5073186;28;20367;-62
2023/06/17 14:42:59;;;;;;;6.60;5.00;;;;;;;30.32;27.09;99927.69;5073590;28;20447;-61
2023/06/17 14:45:26;;;;;;;7.80;5.22;;;;;;;30.14;25.60;99918.50;5073404;28;20041;-60
2023/06/17 14:47:51;;;;;;;7.88;5.43;;;;;;;29.98;26.16;99918.00;5073398;28;20070;-61
2023/06/17 14:50:17;;;;;;;7.85;5.03;;;;;;;29.69;25.71;99912.09;5072983;28;20060;-60
2023/06/17 14:52:47;;;;;;;8.15;5.45;;;;;;;29.88;25.91;99920.19;5073247;28;20390;-61
2023/06/17 14:55:12;;;;;;;6.88;5.45;;;;;;;29.79;26.09;99906.38;5073087;28;20052;-61
2023/06/17 14:57:38;;;;;;;8.48;5.35;;;;;;;29.90;26.81;99913.25;5073309;28;20182;-62
2023/06/17 15:00:04;;;;;;;6.38;5.05;;;;;;;29.91;27.03;99911.31;5071650;28;20044;-62
2023/06/17 15:03:01;;;;;;;7.18;4.82;;;;;;;29.94;25.83;99906.03;5073304;28;20016;-61
2023/06/17 15:05:27;;;;;;;7.35;5.00;;;;;;;30.03;26.37;99899.78;5072098;28;20437;-61
2023/06/17 15:07:52;;;;;;;11.13;4.93;;;;;;;30.06;24.88;99908.22;5073145;28;20113;-62
2023/06/17 15:10:17;;;;;;;10.35;5.65;;;;;;;30.09;24.94;99895.81;5072658;28;20043;-62
2023/06/17 15:12:44;;;;;;;7.10;4.82;;;;;;;30.02;25.52;99898.97;5072471;28;20045;-63
2023/06/17 15:15:13;;;;;;;7.95;5.10;;;;;;;29.94;25.85;99900.53;5072816;28;20135;-63
2023/06/17 15:17:40;;;;;;;6.00;4.43;;;;;;;29.98;26.30;99901.53;5072769;28;20036;-63
2023/06/17 15:20:06;;;;;;;9.27;4.97;;;;;;;30.05;26.80;99903.84;5072606;28;20397;-63
2023/06/17 15:22:31;;;;;;;8.73;5.30;;;;;;;30.07;26.05;99896.13;5072302;28;20043;-63
2023/06/17 15:24:57;;;;;;;9.75;5.28;;;;;;;30.00;25.68;99887.50;5072516;28;20040;-63
2023/06/17 15:27:23;;;;;;;8.67;5.10;;;;;;;29.82;25.42;99885.75;5073687;28;20129;-63
2023/06/17 15:29:49;;;;;;;6.27;4.73;;;;;;;29.79;25.25;99883.59;5072552;28;20086;-62
2023/06/17 15:32:14;;;;;;;7.82;5.03;;;;;;;29.95;25.76;99887.63;5073297;28;20045;-62
2023/06/17 15:34:40;;;;;;;6.15;5.03;;;;;;;30.03;26.37;99886.88;5072969;28;20696;-63
2023/06/17 15:37:06;;;;;;;6.82;4.97;;;;;;;30.02;27.03;99884.44;5072992;28;20070;-62
2023/06/17 15:39:32;;;;;;;7.05;5.00;;;;;;;29.96;26.30;99881.00;5072338;28;20040;-62
2023/06/17 15:41:58;;;;;;;8.63;5.30;;;;;;;29.95;26.24;99877.44;5072988;28;20053;-61
2023/06/17 15:44:23;;;;;;;7.85;5.40;;;;;;;29.83;25.76;99888.16;5072615;28;20493;-62